Pagrindinis puslapis
METAR-TAF:

METAR-TAF

Oro uostai :

Sakonakhonas, Tailandas

platuma: 17-11-42N, ilguma: 104-07-08E, Aukštis: 161 m

Dabartinis oras

Ataskaita buvo paskelbta 2 valandos ir 12 minutes, ne 10:00 UTC
Vėjas 6 kt iš Rytų/Pietryčių
Temperatūra 28°C
Drėgmė 58%
Slėgis 1012 hPa
Matomumas 10 km arba daugiau
Išsisklaidę debesys ne aukštis 3000 ft

METAR: VTUI 151000Z 12006KT 9999 SCT030 28/19 Q1012 NOSIG

Laikas: 19:12 (12:12 UTC)

Prognozė

Ataskaita buvo paskelbta 1 valandą ir 12 minutes, ne 11:00 UTC
Prognozė galioja nuo 15 metu 12 UTC su 16 metu 12 UTC
Vėjas 8 kt iš Rytų
Matomumas: 9000 m
Išsisklaidę debesys ne aukštis 3000 ft

TAF: VTUI 151100Z 1512/1612 10008KT 9000 SCT030

Orai ataskaitas ir orų prognozės (METAR, TAF).

turimą stotys yra geltonos ir raudonos taškus žemėlapyje.

Perkelti pele per norėdami pamatyti stoties vardą.

Tada spustelėkite, norėdami matyti oro stebėjimo ir prognozės.

Norėdami pakeisti žemėlapį: spustelėkite ant žalios mygtukų su juodo kryžiaus žemyn,; žalią mygtuką su brūkšneliu, jei norite nutolinti; arba žalių rodyklių gretimoms žemėlapius.


METAR-TAF: